Logo AVAMET
Benvolgut visitant, si us plau, ingressa Recuperar contrasenya

Inforatge Xeraco centre

Dades diàries. Acumulats / Últims 30 dies disponibles

Data Temperatura (°C) Humitat rel. (%) Pressió rel. (hPa) Vent (km/h) Precipitació
Mínima Mitjana Màxima Amplitud
tèrmica
Mínima Mitjana Màxima Mínima Mitjana Màxima Predom. Mitjana Ràfega
màxima
Total
(mm)
Índex-n
Mínima Mitjana Màxima Mínima Mitjana Màxima n
0 a 1
P0 max
mm 5'
Dades mensuals acumulades fins l'últim dia disponible
07/2019 21,3 23,7 26,4 27,0 27,1 30,7 39,2 17,9 17 72 88 1.010 1.014 1.018   6,0 56,3 0,2
Dades anuals acumulades fins l'últim dia disponible
2019 4,2 13,5 26,4 17,3 11,6 21,3 39,2 35,0 15 65 97 995 1.019 1.037   6,7 80,6 263,0
Últims 30 dies disponibles
15-07-2019 23,2     26,6     29,0 5,8 65 75 86 1.011 1.012 1.014 SE 5,3 27,8 0,0
14-07-2019 24,0     26,4     29,3 5,3 54 75 86 1.011 1.012 1.014 SSE 7,4 31,5 0,0
13-07-2019 25,4     27,1     29,4 4,0 46 71 84 1.013 1.015 1.016 SE 5,2 24,1 0,0
12-07-2019 24,2     28,7     34,0 9,8 41 62 78 1.012 1.015 1.017 SSE 5,4 32,2 0,0
11-07-2019 22,8     27,8     33,6 10,8 42 66 83 1.012 1.015 1.016 SE 5,4 25,9 0,0
10-07-2019 23,2     26,1     29,3 6,1 58 75 84 1.013 1.015 1.017 SSE 6,4 27,8 0,0
09-07-2019 23,8     27,2     31,6 7,8 37 66 85 1.011 1.012 1.015 SSO 8,9 31,5 0,0
08-07-2019 25,5     26,8     28,7 3,2 64 77 85 1.011 1.013 1.015 SSE 4,6 25,9 0,0
07-07-2019 26,4     30,6     35,3 8,9 27 57 83 1.010 1.012 1.014 SE 6,4 56,3 0,0
06-07-2019 24,2     28,6     39,2 15,0 17 69 86 1.010 1.013 1.016 SSE 5,4 40,7 0,2
05-07-2019 23,6     26,3     28,9 5,3 67 78 86 1.014 1.017 1.018 SSE 6,4 25,9 0,0
04-07-2019 23,1     26,0     28,8 5,7 51 76 88 1.015 1.017 1.018 SSE 5,4 25,9 0,0
03-07-2019 21,3     25,7     28,5 7,2 48 70 85 1.014 1.015 1.017 SE 5,6 22,6 0,0
02-07-2019 23,6     25,4     27,1 3,5 74 82 88 1.015 1.016 1.018 SE 5,4 29,6 0,0
01-07-2019 21,9     25,2     28,1 6,2 72 81 87 1.015 1.017 1.018 SE 6,1 29,6 0,0
30-06-2019 21,8     26,3     30,4 8,6 46 60 87 1.016 1.018 1.019 SSE 3,8 18,5 0,0
29-06-2019 22,0     28,0     33,0 11,0 40 53 77 1.014 1.016 1.017 SSE 4,0 22,6 0,0
28-06-2019 22,1     27,2     31,6 9,5 41 56 73 1.016 1.018 1.020 SSE 3,4 18,5 0,0
27-06-2019 22,3     25,5     30,2 7,9 47 75 92 1.019 1.020 1.022 SSE 4,1 24,1 0,0
26-06-2019 22,7     24,1     26,9 4,2 75 84 91 1.018 1.019 1.021 SSE 6,5 29,6 0,0
25-06-2019 21,3     23,8     26,9 5,6 67 78 86 1.016 1.017 1.020 SE 5,6 29,6 0,0
24-06-2019 19,4     23,0     26,1 6,7 59 77 86 1.014 1.015 1.017 SE 6,3 29,6 0,0
23-06-2019 19,7     23,0     26,1 6,4 60 79 89 1.014 1.016 1.017 SSE 5,1 22,6 0,0
22-06-2019 19,8     22,2     24,4 4,6 74 80 85 1.015 1.017 1.019 SSE 5,5 24,1 0,0
21-06-2019 20,8     22,4     24,5 3,7 70 80 88 1.014 1.015 1.018 SSE 6,0 27,8 0,0
20-06-2019 19,5     22,2     24,2 4,7 63 78 88 1.012 1.014 1.015 ESE 7,2 31,5 0,0
19-06-2019 19,8     24,3     30,4 10,6 36 66 87 1.011 1.013 1.015 SE 4,5 24,1 0,0
18-06-2019 18,6     24,0     31,3 12,7 35 67 82 1.012 1.015 1.017 SE 5,3 29,6 0,0
17-06-2019 17,0     23,1     31,7 14,7 32 69 87 1.014 1.017 1.020 S 5,8 25,9 0,0
16-06-2019 19,0     20,9     23,1 4,1 67 80 88 1.019 1.021 1.022 SSE 6,0 29,6 0,0
Últims 13 mesos disponibles
06/2019 14,6 18,9 22,7 22,8 20,3 26,8 33,0 18,4 37 68 84 1.009 1.016 1.023 SSE 6,4 50,0 0,2
05/2019 11,2 15,6 23,2 19,2 17,9 23,5 31,8 20,6 47 68 82 1.006 1.016 1.025 SSE 6,2 56,3 9,0
04/2019 10,0 12,7 15,2 15,9 13,9 19,2 29,2 19,2 37 68 94 1.002 1.014 1.026 SSE 9,1 61,1 216,6
03/2019 8,3 10,8 15,9 15,3 12,1 19,4 28,3 20,0 30 60 90 1.012 1.024 1.031 S 5,8 64,8 35,8
02/2019 6,6 8,9 12,3 13,0 13,3 17,2 22,4 15,8 33 65 83 996 1.026 1.035 S 5,5 79,6 0,0
01/2019 4,2 8,9 14,2 12,7 11,6 16,7 20,9 16,7 40 57 84 1.003 1.020 1.032 SSO 7,4 80,6 1,2
12/2018 6,3 10,7 15,9 14,5 14,2 18,7 24,6 18,3 47 67 88 1.010 1.026 1.032 SSO 5,6 63,0 24,0
11/2018 8,3 13,1 17,2 16,0 16,3 19,1 22,4 14,1 43 68 95 1.002 1.016 1.025 SO 6,5 75,9 318,0
10/2018 9,1 16,2 21,2 19,3 15,4 22,7 29,4 20,3 42 71 90 1.001 1.015 1.026 S 6,0 61,1 153,6
09/2018 17,1 21,7 24,9 24,6 25,1 27,7 31,7 14,6 63 78 88 1.013 1.020 1.029 4,5 46,7 109,6
08/2018 22,3 24,5 27,7 27,4 26,2 30,4 35,2 12,9 53 72 86 1.013 1.017 1.021 5,5 53,7 127,8
07/2018 22,5 24,1 26,6 27,1 26,1 30,7 37,1 14,6 35 71 85 1.012 1.016 1.021 6,7 61,1 0,4
06/2018 15,9 20,3 24,8 23,6 22,7 27,2 32,4 16,5 47 66 81 1.012 1.016 1.021 6,2 51,9 20,0
Tots els anys disponibles
2018 4,6 15,8 27,7 19,0 8,4 22,6 37,1 32,5 35 67 95 994 1.017 1.036 SSE 6,5 76,0 924,6
2017 1,4 16,3 26,9 19,8 9,6 23,3 39,0 37,6 33 68 93 1.002 1.017 1.038 SE 0,0 97,0 399,0
2016 4,8 16,0 25,6 19,4 12,4 22,8 39,6 34,8 29 66 93 993 1.017 1.036 93,0 543,9
Temperatura (°C)
Humitat relativa (%)
Velocitat del vent i ràfega màxima (km/h)
Direcció del vent (°)
Pressió (hPa)
Precipitació (mm)
Nota sobre les dades: s'avisa a l'usuari de la provisionalitat i no oficialitat d'aquestes dades
Logo AVAMET blanc
Web allotjada a Sollutia
Llicència de Creative CommonsLa web d'AVAMET i els seus continguts estan subjectes a una llicència de
Reconeixement - No Comercial - Compartir igual
Properes estacions: Altea - Club Nàutic d'Altea (Soci), Ares del Maestrat (Ajuntament Soci),      - - - - -      Últimes estacions: Catadau - Urb. Lloma Molina (Inforatge), Ontinyent - El Pilar (Soci), Asp - Poliesportiu (Soci) - - -